JJA4221 RKPC-RKPK
Flight info
| Callsign | JJA4221 |
|---|---|
| Flight time | N/A |
| Altitude | 21000 |
| Route | AKPON1W AKPON Y571 ANROD KEVOX3 |
| Aircraft | B738/M-SDE2E3FGHIRWXY/LB1 |
Departure
| Time | 2026-04-30 15:08 |
|---|---|
| Airport | Jeju International Airport (RKPC) |
Arrival
| Time | N/A |
|---|---|
| Airport | Gimhae International Airport (RKPK) |
| Time | Latitude | Longitude | Altitude | Speed | Heading |
|---|---|---|---|---|---|
| 2026-04-30 14:53 | 33.50767 | 126.49234 | 90 ft | 0 kts | 174° |
| 2026-04-30 15:00 | 33.50774 | 126.49233 | 92 ft | 2 kts | 174° |
| 2026-04-30 15:01 | 33.50808 | 126.49227 | 89 ft | 3 kts | 147° |
| 2026-04-30 15:01 | 33.50816 | 126.49219 | 89 ft | 3 kts | 112° |
| 2026-04-30 15:01 | 33.50810 | 126.49168 | 90 ft | 3 kts | 61° |
| 2026-04-30 15:02 | 33.50806 | 126.49160 | 89 ft | 1 kts | 58° |
| 2026-04-30 15:04 | 33.50816 | 126.49180 | 91 ft | 5 kts | 58° |
| 2026-04-30 15:04 | 33.50936 | 126.49413 | 93 ft | 16 kts | 58° |
| 2026-04-30 15:05 | 33.51189 | 126.49668 | 89 ft | 16 kts | 20° |
| 2026-04-30 15:06 | 33.51372 | 126.49699 | 86 ft | 6 kts | 328° |
| 2026-04-30 15:06 | 33.51422 | 126.49634 | 87 ft | 6 kts | 250° |
| 2026-04-30 15:07 | 33.51310 | 126.49411 | 87 ft | 59 kts | 238° |
| 2026-04-30 15:07 | 33.50269 | 126.47375 | 364 ft | 158 kts | 238° |
| 2026-04-30 15:08 | 33.49300 | 126.45505 | 1471 ft | 161 kts | 242° |
| 2026-04-30 15:08 | 33.47232 | 126.41474 | 2516 ft | 225 kts | 243° |
| 2026-04-30 15:09 | 33.45528 | 126.38183 | 3503 ft | 238 kts | 242° |
| 2026-04-30 15:09 | 33.43590 | 126.34684 | 4396 ft | 267 kts | 226° |
| 2026-04-30 15:10 | 33.40057 | 126.33430 | 6145 ft | 279 kts | 176° |
| 2026-04-30 15:11 | 33.32252 | 126.35242 | 9039 ft | 300 kts | 153° |
| 2026-04-30 15:11 | 33.29901 | 126.39283 | 10307 ft | 315 kts | 95° |
| 2026-04-30 15:12 | 33.30774 | 126.47796 | 10847 ft | 374 kts | 79° |
| 2026-04-30 15:13 | 33.31533 | 126.54078 | 11829 ft | 390 kts | 81° |
| 2026-04-30 15:14 | 33.35814 | 126.65950 | 14240 ft | 404 kts | 53° |
| 2026-04-30 15:14 | 33.40567 | 126.74476 | 16115 ft | 415 kts | 55° |
| 2026-04-30 15:16 | 33.48695 | 126.89300 | 18876 ft | 439 kts | 56° |
| 2026-04-30 15:17 | 33.55518 | 127.01792 | 20815 ft | 454 kts | 57° |
| 2026-04-30 15:18 | 33.65838 | 127.16891 | 20987 ft | 473 kts | 46° |
| 2026-04-30 15:19 | 33.72444 | 127.25596 | 20988 ft | 472 kts | 48° |